createdAt,value
2018-10-21T00:00:24.280Z,6.59
2018-10-21T00:01:24.267Z,6.59
2018-10-21T00:02:24.307Z,6.58
2018-10-21T00:03:24.282Z,6.62
2018-10-21T00:04:24.217Z,6.67
2018-10-21T00:05:24.218Z,6.59
2018-10-21T00:06:24.209Z,6.59
2018-10-21T00:07:24.198Z,6.66
2018-10-21T00:08:24.181Z,6.64
2018-10-21T00:09:24.168Z,6.66
2018-10-21T00:10:24.166Z,6.66
2018-10-21T00:11:24.148Z,6.51
2018-10-21T00:12:24.140Z,6.58
2018-10-21T00:13:24.138Z,6.54
2018-10-21T00:14:24.137Z,6.54
2018-10-21T00:15:24.230Z,6.54
2018-10-21T00:16:24.103Z,6.51
2018-10-21T00:17:24.073Z,6.55
2018-10-21T00:18:24.070Z,6.56
2018-10-21T00:19:24.071Z,6.49
2018-10-21T00:20:24.053Z,6.41
2018-10-21T00:21:24.042Z,6.43
2018-10-21T00:22:24.034Z,6.43
2018-10-21T00:23:24.026Z,6.46
2018-10-21T00:24:24.000Z,6.51
2018-10-21T00:25:23.998Z,6.38
2018-10-21T00:26:23.985Z,6.46
2018-10-21T00:27:23.974Z,6.40
2018-10-21T00:28:23.968Z,6.37
2018-10-21T00:29:23.963Z,6.31
2018-10-21T00:30:23.953Z,6.40
2018-10-21T00:31:23.926Z,6.28
2018-10-21T00:32:23.918Z,6.31
2018-10-21T00:33:23.909Z,6.27
2018-10-21T00:34:23.892Z,6.28
2018-10-21T00:35:23.905Z,6.27
2018-10-21T00:36:23.871Z,6.25
2018-10-21T00:37:23.856Z,6.22
2018-10-21T00:38:23.855Z,6.28
2018-10-21T00:39:23.857Z,6.22
2018-10-21T00:40:23.837Z,6.30
2018-10-21T00:41:23.829Z,6.25
2018-10-21T00:42:23.812Z,6.27
2018-10-21T00:43:23.798Z,6.18
2018-10-21T00:44:23.799Z,6.11
2018-10-21T00:45:23.769Z,6.14
2018-10-21T00:46:23.762Z,6.17
2018-10-21T00:47:23.754Z,6.18
2018-10-21T00:48:23.752Z,6.14
2018-10-21T00:49:23.786Z,6.15
2018-10-21T00:50:23.725Z,6.08
2018-10-21T00:51:23.712Z,6.04
2018-10-21T00:52:23.746Z,6.14
2018-10-21T00:53:23.682Z,6.09
2018-10-21T00:54:23.690Z,6.06
2018-10-21T00:55:23.669Z,6.08
2018-10-21T00:56:23.652Z,6.15
2018-10-21T00:57:23.656Z,6.08
2018-10-21T00:58:23.633Z,6.00
2018-10-21T00:59:23.619Z,6.03
2018-10-21T01:00:23.614Z,6.06
2018-10-21T01:01:23.611Z,6.00
2018-10-21T01:02:23.608Z,6.12
2018-10-21T01:03:23.582Z,6.06
2018-10-21T01:04:23.563Z,6.06
2018-10-21T01:05:23.559Z,6.08
2018-10-21T01:06:23.563Z,6.11
2018-10-21T01:07:23.543Z,6.06
2018-10-21T01:08:23.532Z,6.09
2018-10-21T01:09:23.513Z,6.11
2018-10-21T01:10:23.508Z,6.06
2018-10-21T01:11:23.506Z,5.99
2018-10-21T01:12:23.477Z,6.09
2018-10-21T01:13:23.493Z,6.01
2018-10-21T01:14:23.460Z,6.04
2018-10-21T01:15:23.467Z,6.06
2018-10-21T01:16:23.439Z,6.04
2018-10-21T01:17:23.423Z,5.94
2018-10-21T01:18:23.424Z,6.06
2018-10-21T01:19:23.399Z,5.94
2018-10-21T01:20:23.408Z,5.97
2018-10-21T01:21:23.417Z,5.93
2018-10-21T01:22:23.371Z,5.89
2018-10-21T01:23:23.379Z,5.96
2018-10-21T01:24:23.358Z,5.93
2018-10-21T01:25:23.352Z,5.82
2018-10-21T01:26:23.325Z,5.79
2018-10-21T01:27:23.319Z,5.79
2018-10-21T01:28:23.320Z,5.86
2018-10-21T01:29:23.301Z,5.83
2018-10-21T01:30:23.280Z,5.85
2018-10-21T01:31:23.277Z,5.91
2018-10-21T01:32:23.275Z,5.81
2018-10-21T01:33:23.266Z,5.83
2018-10-21T01:34:23.235Z,5.83
2018-10-21T01:35:23.227Z,5.86
2018-10-21T01:36:23.460Z,5.85
2018-10-21T01:37:23.222Z,5.79
2018-10-21T01:38:23.271Z,5.79
2018-10-21T01:39:23.192Z,5.78
2018-10-21T01:40:23.173Z,5.89
2018-10-21T01:41:23.159Z,5.85
2018-10-21T01:42:23.156Z,5.78
2018-10-21T01:43:23.162Z,5.83
2018-10-21T01:44:23.136Z,5.85
2018-10-21T01:45:23.118Z,5.72
2018-10-21T01:46:23.112Z,5.72
2018-10-21T01:47:23.103Z,5.75
2018-10-21T01:48:23.123Z,5.76
2018-10-21T01:49:23.080Z,5.78
2018-10-21T01:50:23.070Z,5.65
2018-10-21T01:51:23.060Z,5.75
2018-10-21T01:52:23.097Z,5.75
2018-10-21T01:53:23.049Z,5.74
2018-10-21T01:54:23.028Z,5.71
2018-10-21T01:55:23.019Z,5.74
2018-10-21T01:56:23.005Z,5.71
2018-10-21T01:57:23.012Z,5.76
2018-10-21T01:58:22.977Z,5.64
2018-10-21T01:59:22.969Z,5.74
2018-10-21T02:00:22.962Z,5.71
2018-10-21T02:01:22.949Z,5.74
2018-10-21T02:02:22.945Z,5.68
2018-10-21T02:03:22.952Z,5.72
2018-10-21T02:04:22.912Z,5.75
2018-10-21T02:05:22.908Z,5.72
2018-10-21T02:06:22.893Z,5.71
2018-10-21T02:07:22.895Z,5.63
2018-10-21T02:08:22.877Z,5.65
2018-10-21T02:09:22.881Z,5.63
2018-10-21T02:10:22.848Z,5.65
2018-10-21T02:11:22.856Z,5.61
2018-10-21T02:12:22.834Z,5.65
2018-10-21T02:13:22.861Z,5.61
2018-10-21T02:14:22.814Z,5.54
2018-10-21T02:15:22.801Z,5.60
2018-10-21T02:16:22.780Z,5.60
2018-10-21T02:17:22.789Z,5.58
2018-10-21T02:18:22.765Z,5.54
2018-10-21T02:19:22.752Z,5.53
2018-10-21T02:20:22.757Z,5.53
2018-10-21T02:21:22.735Z,5.54
2018-10-21T02:22:22.734Z,5.56
2018-10-21T02:23:22.709Z,5.57
2018-10-21T02:24:22.708Z,5.54
2018-10-21T02:25:22.700Z,5.51
2018-10-21T02:26:22.721Z,5.40
2018-10-21T02:27:22.674Z,5.45
2018-10-21T02:28:22.691Z,5.38
2018-10-21T02:29:22.661Z,5.49
2018-10-21T02:30:22.633Z,5.42
2018-10-21T02:31:22.628Z,5.51
2018-10-21T02:32:22.618Z,5.45
2018-10-21T02:33:22.707Z,5.46
2018-10-21T02:34:22.609Z,5.39
2018-10-21T02:35:22.589Z,5.43
2018-10-21T02:36:22.581Z,5.51
2018-10-21T02:37:22.563Z,5.42
2018-10-21T02:38:22.551Z,5.35
2018-10-21T02:39:22.565Z,5.30
2018-10-21T02:40:22.530Z,5.39
2018-10-21T02:41:22.518Z,5.30
2018-10-21T02:42:22.525Z,5.27
2018-10-21T02:43:22.513Z,5.27
2018-10-21T02:44:22.481Z,5.40
2018-10-21T02:45:22.478Z,5.28
2018-10-21T02:46:22.479Z,5.39
2018-10-21T02:47:22.465Z,5.18
2018-10-21T02:48:22.436Z,5.28
2018-10-21T02:49:22.439Z,5.24
2018-10-21T02:50:22.444Z,5.28
2018-10-21T02:51:22.410Z,5.21
2018-10-21T02:52:22.417Z,5.25
2018-10-21T02:53:22.404Z,5.28
2018-10-21T02:54:22.372Z,5.17
2018-10-21T02:55:22.394Z,5.22
2018-10-21T02:56:22.350Z,5.17
2018-10-21T02:57:22.474Z,5.13
2018-10-21T02:58:22.335Z,5.21
2018-10-21T02:59:22.347Z,5.21
2018-10-21T03:00:22.327Z,5.15
2018-10-21T03:01:22.300Z,5.18
2018-10-21T03:02:22.291Z,5.28
2018-10-21T03:03:22.303Z,5.27
2018-10-21T03:04:22.274Z,5.17
2018-10-21T03:05:22.257Z,5.25
2018-10-21T03:06:22.250Z,5.17
2018-10-21T03:07:22.234Z,5.22
2018-10-21T03:08:22.224Z,5.25
2018-10-21T03:09:22.274Z,5.22
2018-10-21T03:10:22.223Z,5.17
2018-10-21T03:11:22.204Z,5.15
2018-10-21T03:12:22.194Z,5.10
2018-10-21T03:13:22.170Z,5.10
2018-10-21T03:14:22.159Z,5.10
2018-10-21T03:15:22.159Z,5.17
2018-10-21T03:16:22.140Z,5.12
2018-10-21T03:17:22.143Z,5.22
2018-10-21T03:18:22.144Z,5.13
2018-10-21T03:19:22.106Z,5.17
2018-10-21T03:20:22.133Z,5.07
2018-10-21T03:21:22.213Z,5.12
2018-10-21T03:22:22.077Z,5.15
2018-10-21T03:23:22.083Z,5.15
2018-10-21T03:24:22.058Z,5.09
2018-10-21T03:25:22.047Z,5.07
2018-10-21T03:26:22.043Z,5.10
2018-10-21T03:27:22.020Z,5.03
2018-10-21T03:28:22.016Z,5.00
2018-10-21T03:29:22.011Z,5.03
2018-10-21T03:30:22.004Z,4.99
2018-10-21T03:31:22.005Z,5.00
2018-10-21T03:32:21.965Z,5.03
2018-10-21T03:33:22.237Z,4.94
2018-10-21T03:34:21.951Z,4.99
2018-10-21T03:35:21.950Z,4.97
2018-10-21T03:36:21.937Z,4.99
2018-10-21T03:37:21.921Z,4.97
2018-10-21T03:38:21.910Z,4.97
2018-10-21T03:39:21.893Z,4.89
2018-10-21T03:40:21.886Z,4.91
2018-10-21T03:41:21.875Z,4.97
2018-10-21T03:42:21.929Z,5.03
2018-10-21T03:43:21.857Z,5.00
2018-10-21T03:44:21.843Z,4.99
2018-10-21T03:45:21.834Z,4.97
2018-10-21T03:46:21.828Z,4.92
2018-10-21T03:47:21.844Z,4.94
2018-10-21T03:48:21.809Z,4.99
2018-10-21T03:49:21.784Z,4.96
2018-10-21T03:50:21.769Z,4.92
2018-10-21T03:51:21.770Z,4.99
2018-10-21T03:52:21.757Z,4.94
2018-10-21T03:53:21.774Z,4.88
2018-10-21T03:54:21.745Z,4.85
2018-10-21T03:55:21.733Z,4.89
2018-10-21T03:56:21.709Z,4.91
2018-10-21T03:57:21.700Z,4.89
2018-10-21T03:58:21.695Z,4.91
2018-10-21T03:59:21.684Z,4.91
2018-10-21T04:00:21.668Z,4.92
2018-10-21T04:01:21.675Z,4.88
2018-10-21T04:02:21.669Z,4.80
2018-10-21T04:03:21.647Z,4.78
2018-10-21T04:04:21.623Z,4.85
2018-10-21T04:05:21.618Z,4.86
2018-10-21T04:06:21.608Z,4.82
2018-10-21T04:07:21.589Z,4.84
2018-10-21T04:08:21.596Z,4.86
2018-10-21T04:09:21.584Z,4.85
2018-10-21T04:10:21.570Z,4.85
2018-10-21T04:11:21.563Z,4.80
2018-10-21T04:12:21.540Z,4.82
2018-10-21T04:13:21.530Z,4.85
2018-10-21T04:14:21.540Z,4.84
2018-10-21T04:15:21.524Z,4.77
2018-10-21T04:16:21.520Z,4.72
2018-10-21T04:17:21.497Z,4.69
2018-10-21T04:18:21.476Z,4.73
2018-10-21T04:19:21.469Z,4.72
2018-10-21T04:20:21.467Z,4.66
2018-10-21T04:21:21.441Z,4.70
2018-10-21T04:22:21.428Z,4.73
2018-10-21T04:23:21.457Z,4.66
2018-10-21T04:24:21.422Z,4.73
2018-10-21T04:25:21.410Z,4.70
2018-10-21T04:26:21.392Z,4.69
2018-10-21T04:27:21.372Z,4.72
2018-10-21T04:28:21.500Z,4.67
2018-10-21T04:29:21.372Z,4.65
2018-10-21T04:30:21.351Z,4.63
2018-10-21T04:31:21.339Z,4.55
2018-10-21T04:32:21.324Z,4.58
2018-10-21T04:33:21.323Z,4.59
2018-10-21T04:34:21.323Z,4.58
2018-10-21T04:35:21.326Z,4.52
2018-10-21T04:36:21.278Z,4.54
2018-10-21T04:37:21.270Z,4.55
2018-10-21T04:38:21.266Z,4.58
2018-10-21T04:39:21.272Z,4.52
2018-10-21T04:40:21.238Z,4.54
2018-10-21T04:41:21.249Z,4.54
2018-10-21T04:42:21.220Z,4.47
2018-10-21T04:43:21.217Z,4.47
2018-10-21T04:44:21.216Z,4.41
2018-10-21T04:45:21.182Z,4.42
2018-10-21T04:46:21.206Z,4.40
2018-10-21T04:47:21.154Z,4.44
2018-10-21T04:48:21.149Z,4.47
2018-10-21T04:49:21.135Z,4.42
2018-10-21T04:50:21.139Z,4.40
2018-10-21T04:51:21.128Z,4.41
2018-10-21T04:52:22.851Z,4.37
2018-10-21T04:53:21.101Z,4.40
2018-10-21T04:54:21.080Z,4.36
2018-10-21T04:55:21.093Z,4.24
2018-10-21T04:56:21.063Z,4.41
2018-10-21T04:57:21.062Z,4.33
2018-10-21T04:58:21.046Z,4.30
2018-10-21T04:59:21.024Z,4.33
2018-10-21T05:00:21.025Z,4.32
2018-10-21T05:01:21.016Z,4.30
2018-10-21T05:02:21.016Z,4.30
2018-10-21T05:03:21.006Z,4.32
2018-10-21T05:04:20.985Z,4.34
2018-10-21T05:05:20.977Z,4.36
2018-10-21T05:06:20.971Z,4.33
2018-10-21T05:07:20.960Z,4.32
2018-10-21T05:08:20.933Z,4.37
2018-10-21T05:09:20.921Z,4.33
2018-10-21T05:10:20.928Z,4.33
2018-10-21T05:11:20.907Z,4.27
2018-10-21T05:12:20.898Z,4.26
2018-10-21T05:13:20.877Z,4.37
2018-10-21T05:14:20.863Z,4.32
2018-10-21T05:15:20.929Z,4.32
2018-10-21T05:16:20.924Z,4.24
2018-10-21T05:17:20.838Z,4.30
2018-10-21T05:18:20.825Z,4.33
2018-10-21T05:19:20.806Z,4.32
2018-10-21T05:20:20.797Z,4.24
2018-10-21T05:21:20.785Z,4.26
2018-10-21T05:22:20.788Z,4.30
2018-10-21T05:23:20.783Z,4.18
2018-10-21T05:24:20.763Z,4.23
2018-10-21T05:25:20.743Z,4.24
2018-10-21T05:26:20.744Z,4.26
2018-10-21T05:27:20.742Z,4.33
2018-10-21T05:28:20.714Z,4.24
2018-10-21T05:29:20.703Z,4.30
2018-10-21T05:30:20.703Z,4.24
2018-10-21T05:31:20.685Z,4.33
2018-10-21T05:32:20.695Z,4.26
2018-10-21T05:33:20.658Z,4.29
2018-10-21T05:34:20.644Z,4.30
2018-10-21T05:35:20.642Z,4.24
2018-10-21T05:36:20.628Z,4.26
2018-10-21T05:37:20.630Z,4.26
2018-10-21T05:38:20.624Z,4.30
2018-10-21T05:39:20.590Z,4.30
2018-10-21T05:40:20.603Z,4.26
2018-10-21T05:41:20.574Z,4.27
2018-10-21T05:42:20.583Z,4.14
2018-10-21T05:43:20.547Z,4.18
2018-10-21T05:44:20.545Z,4.20
2018-10-21T05:45:20.540Z,4.22
2018-10-21T05:46:20.521Z,4.15
2018-10-21T05:47:20.627Z,4.22
2018-10-21T05:48:20.542Z,4.18
2018-10-21T05:49:20.495Z,4.20
2018-10-21T05:50:20.480Z,4.14
2018-10-21T05:51:20.467Z,4.02
2018-10-21T05:52:20.811Z,4.16
2018-10-21T05:53:20.452Z,4.20
2018-10-21T05:54:20.436Z,4.11
2018-10-21T05:55:20.429Z,4.20
2018-10-21T05:56:20.431Z,4.18
2018-10-21T05:57:20.400Z,4.18
2018-10-21T05:58:20.497Z,4.15
2018-10-21T05:59:20.381Z,4.24
2018-10-21T06:00:20.373Z,4.18
2018-10-21T06:01:20.369Z,4.20
2018-10-21T06:02:20.357Z,4.22
2018-10-21T06:03:20.341Z,4.12
2018-10-21T06:04:20.335Z,4.14
2018-10-21T06:05:20.311Z,4.18
2018-10-21T06:06:20.308Z,4.16
2018-10-21T06:07:20.294Z,4.16
2018-10-21T06:08:20.290Z,4.20
2018-10-21T06:09:20.287Z,4.15
2018-10-21T06:10:20.272Z,4.16
2018-10-21T06:11:20.278Z,4.16
2018-10-21T06:12:20.237Z,4.16
2018-10-21T06:13:20.233Z,4.22
2018-10-21T06:14:20.237Z,4.16
2018-10-21T06:15:20.209Z,4.18
2018-10-21T06:16:20.239Z,4.20
2018-10-21T06:17:20.206Z,4.20
2018-10-21T06:18:20.176Z,4.16
2018-10-21T06:19:20.187Z,4.24
2018-10-21T06:20:20.159Z,4.29
2018-10-21T06:21:20.160Z,4.16
2018-10-21T06:22:20.137Z,4.32
2018-10-21T06:23:20.138Z,4.29
2018-10-21T06:24:20.117Z,4.18
2018-10-21T06:25:20.116Z,4.33
2018-10-21T06:26:20.088Z,4.30
2018-10-21T06:27:20.080Z,4.42
2018-10-21T06:28:20.087Z,4.65
2018-10-21T06:29:20.057Z,4.67
2018-10-21T06:30:20.073Z,4.69
2018-10-21T06:31:20.035Z,4.69
2018-10-21T06:32:20.030Z,4.69
2018-10-21T06:33:20.019Z,4.73
2018-10-21T06:34:20.023Z,4.72
2018-10-21T06:35:19.992Z,4.63
2018-10-21T06:36:20.010Z,4.73
2018-10-21T06:37:19.965Z,4.78
2018-10-21T06:38:19.960Z,4.78
2018-10-21T06:39:19.950Z,4.84
2018-10-21T06:40:19.960Z,4.82
2018-10-21T06:41:19.933Z,4.88
2018-10-21T06:42:19.935Z,4.91
2018-10-21T06:43:19.903Z,4.94
2018-10-21T06:44:19.889Z,5.04
2018-10-21T06:45:19.956Z,5.04
2018-10-21T06:46:19.890Z,5.13
2018-10-21T06:47:19.883Z,5.15
2018-10-21T06:48:19.910Z,5.25
2018-10-21T06:49:19.836Z,5.30
2018-10-21T06:50:19.831Z,5.51
2018-10-21T06:51:19.833Z,5.48
2018-10-21T06:52:19.811Z,5.67
2018-10-21T06:53:19.801Z,5.83
2018-10-21T06:54:19.793Z,6.01
2018-10-21T06:55:19.777Z,6.19
2018-10-21T06:56:19.817Z,6.46
2018-10-21T06:57:19.942Z,6.59
2018-10-21T06:58:19.742Z,6.59
2018-10-21T06:59:19.735Z,6.69
2018-10-21T07:00:19.735Z,6.79
2018-10-21T07:01:19.710Z,6.84
2018-10-21T07:02:19.732Z,6.89
2018-10-21T07:03:19.689Z,7.09
2018-10-21T07:04:19.777Z,7.16
2018-10-21T07:05:19.679Z,7.35
2018-10-21T07:06:19.660Z,7.50
2018-10-21T07:07:19.654Z,7.80
2018-10-21T07:08:19.644Z,8.10
2018-10-21T07:09:19.621Z,8.26
2018-10-21T07:10:19.624Z,8.47
2018-10-21T07:11:19.614Z,8.61
2018-10-21T07:12:19.592Z,8.80
2018-10-21T07:13:19.590Z,8.86
2018-10-21T07:14:19.588Z,8.94
2018-10-21T07:15:19.663Z,8.87
2018-10-21T07:16:19.753Z,8.74
2018-10-21T07:17:19.538Z,8.68
2018-10-21T07:18:19.524Z,8.63
2018-10-21T07:19:19.524Z,8.37
2018-10-21T07:20:19.500Z,8.15
2018-10-21T07:21:19.494Z,8.02
2018-10-21T07:22:19.495Z,7.97
2018-10-21T07:23:19.477Z,7.71
2018-10-21T07:24:19.487Z,7.63
2018-10-21T07:25:19.460Z,7.74
2018-10-21T07:26:19.435Z,7.69
2018-10-21T07:27:19.432Z,7.86
2018-10-21T07:28:19.538Z,7.77
2018-10-21T07:29:19.410Z,7.75
2018-10-21T07:30:19.393Z,7.82
2018-10-21T07:31:19.395Z,7.83
2018-10-21T07:32:19.372Z,7.79
2018-10-21T07:33:19.383Z,7.89
2018-10-21T07:34:19.456Z,7.97
2018-10-21T07:35:19.337Z,8.08
2018-10-21T07:36:19.380Z,8.38
2018-10-21T07:37:19.319Z,8.55
2018-10-21T07:38:19.304Z,8.76
2018-10-21T07:39:19.293Z,8.76
2018-10-21T07:40:19.398Z,9.05
2018-10-21T07:41:19.281Z,9.68
2018-10-21T07:42:19.267Z,9.96
2018-10-21T07:43:19.262Z,9.64
2018-10-21T07:44:19.249Z,9.81
2018-10-21T07:45:19.231Z,9.97
2018-10-21T07:46:19.334Z,10.45
2018-10-21T07:47:19.223Z,10.64
2018-10-21T07:48:19.189Z,10.71
2018-10-21T07:49:19.186Z,10.94
2018-10-21T07:50:19.173Z,11.03
2018-10-21T07:51:19.174Z,11.02
2018-10-21T07:52:19.182Z,11.07
2018-10-21T07:53:19.137Z,11.07
2018-10-21T07:54:19.127Z,11.24
2018-10-21T07:55:19.202Z,11.37
2018-10-21T07:56:19.138Z,11.35
2018-10-21T07:57:19.099Z,11.21
2018-10-21T07:58:19.096Z,11.22
2018-10-21T07:59:19.072Z,11.61
2018-10-21T08:00:19.058Z,11.57
2018-10-21T08:01:19.085Z,11.79
2018-10-21T08:02:19.056Z,12.04
2018-10-21T08:03:19.031Z,12.24
2018-10-21T08:04:19.027Z,12.47
2018-10-21T08:05:19.005Z,12.45
2018-10-21T08:06:19.002Z,12.37
2018-10-21T08:07:18.987Z,12.53
2018-10-21T08:08:18.995Z,12.41
2018-10-21T08:09:18.991Z,12.42
2018-10-21T08:10:18.959Z,12.53
2018-10-21T08:11:18.942Z,12.68
2018-10-21T08:12:18.927Z,12.97
2018-10-21T08:13:18.915Z,12.93
2018-10-21T08:14:18.919Z,13.30
2018-10-21T08:15:18.999Z,13.42
2018-10-21T08:16:19.013Z,13.26
2018-10-21T08:17:18.896Z,13.54
2018-10-21T08:18:18.866Z,13.14
2018-10-21T08:19:18.874Z,12.70
2018-10-21T08:20:18.839Z,12.28
2018-10-21T08:21:18.958Z,12.32
2018-10-21T08:22:18.848Z,11.75
2018-10-21T08:23:18.809Z,11.19
2018-10-21T08:24:18.818Z,10.53
2018-10-21T08:25:18.785Z,10.07
2018-10-21T08:26:18.794Z,9.72
2018-10-21T08:27:18.842Z,9.48
2018-10-21T08:28:18.938Z,9.47
2018-10-21T08:29:18.755Z,9.33
2018-10-21T08:30:18.743Z,9.35
2018-10-21T08:31:18.722Z,9.50
2018-10-21T08:32:18.740Z,9.66
2018-10-21T08:33:18.701Z,9.78
2018-10-21T08:34:18.835Z,9.76
2018-10-21T08:35:18.692Z,10.01
2018-10-21T08:36:18.672Z,10.11
2018-10-21T08:37:18.664Z,10.51
2018-10-21T08:38:18.644Z,10.84
2018-10-21T08:39:18.636Z,11.22
2018-10-21T08:40:18.628Z,11.32
2018-10-21T08:41:18.645Z,11.24
2018-10-21T08:42:18.616Z,11.35
2018-10-21T08:43:18.589Z,11.33
2018-10-21T08:44:18.590Z,11.06
2018-10-21T08:45:18.570Z,10.73
2018-10-21T08:46:18.646Z,10.51
2018-10-21T08:47:18.562Z,10.15
2018-10-21T08:48:18.554Z,9.96
2018-10-21T08:49:18.595Z,9.97
2018-10-21T08:50:18.516Z,10.30
2018-10-21T08:51:18.502Z,10.66
2018-10-21T08:52:18.699Z,11.11
2018-10-21T08:53:18.493Z,11.37
2018-10-21T08:54:18.479Z,11.32
2018-10-21T08:55:18.475Z,11.32
2018-10-21T08:56:18.446Z,11.44
2018-10-21T08:57:18.433Z,11.46
2018-10-21T08:58:18.576Z,11.62
2018-10-21T08:59:18.420Z,11.57
2018-10-21T09:00:18.419Z,11.51
2018-10-21T09:01:18.495Z,11.15
2018-10-21T09:02:18.383Z,10.61
2018-10-21T09:03:18.404Z,10.29
2018-10-21T09:04:18.561Z,10.11
2018-10-21T09:05:18.390Z,10.40
2018-10-21T09:06:18.343Z,10.51
2018-10-21T09:07:18.335Z,10.67
2018-10-21T09:08:18.322Z,10.81
2018-10-21T09:09:18.300Z,10.91
2018-10-21T09:10:18.444Z,10.41
2018-10-21T09:11:18.284Z,10.25
2018-10-21T09:12:18.275Z,9.94
2018-10-21T09:13:18.274Z,9.81
2018-10-21T09:14:18.267Z,9.93
2018-10-21T09:15:18.454Z,10.18
2018-10-21T09:16:18.361Z,10.07
2018-10-21T09:17:18.218Z,10.07
2018-10-21T09:18:18.216Z,10.27
2018-10-21T09:19:18.286Z,10.48
2018-10-21T09:20:18.201Z,10.67
2018-10-21T09:21:18.176Z,10.81
2018-10-21T09:22:18.260Z,10.94
2018-10-21T09:23:18.149Z,10.94
2018-10-21T09:24:18.148Z,10.66
2018-10-21T09:25:18.233Z,10.67
2018-10-21T09:26:18.121Z,10.97
2018-10-21T09:27:18.116Z,11.18
2018-10-21T09:28:18.091Z,11.35
2018-10-21T09:29:18.094Z,11.51
2018-10-21T09:30:18.086Z,11.80
2018-10-21T09:31:18.160Z,11.98
2018-10-21T09:32:18.059Z,12.05
2018-10-21T09:33:18.114Z,12.13
2018-10-21T09:34:18.148Z,12.10
2018-10-21T09:35:18.040Z,12.09
2018-10-21T09:36:18.004Z,12.14
2018-10-21T09:37:17.993Z,12.17
2018-10-21T09:38:17.992Z,11.80
2018-10-21T09:39:17.977Z,11.78
2018-10-21T09:40:18.040Z,11.94
2018-10-21T09:41:17.968Z,11.79
2018-10-21T09:42:18.104Z,11.88
2018-10-21T09:43:18.002Z,11.88
2018-10-21T09:44:17.929Z,11.90
2018-10-21T09:45:17.916Z,11.90
2018-10-21T09:46:18.004Z,11.94
2018-10-21T09:47:17.897Z,12.09
2018-10-21T09:48:17.873Z,12.16
2018-10-21T09:49:18.015Z,12.41
2018-10-21T09:50:17.859Z,12.42
2018-10-21T09:51:17.879Z,12.47
2018-10-21T09:52:17.929Z,12.67
2018-10-21T09:53:17.841Z,12.68
2018-10-21T09:54:17.830Z,12.74
2018-10-21T09:55:17.801Z,12.79
2018-10-21T09:56:17.785Z,12.89
2018-10-21T09:57:17.793Z,13.10
2018-10-21T09:58:17.804Z,13.26
2018-10-21T09:59:17.764Z,13.48
2018-10-21T10:00:17.742Z,13.45
2018-10-21T10:01:17.825Z,13.54
2018-10-21T10:02:17.732Z,13.62
2018-10-21T10:03:17.717Z,13.70
2018-10-21T10:04:17.799Z,13.84
2018-10-21T10:05:17.771Z,14.04
2018-10-21T10:06:17.672Z,14.02
2018-10-21T10:07:17.832Z,14.04
2018-10-21T10:08:17.664Z,13.99
2018-10-21T10:09:17.646Z,13.96
2018-10-21T10:10:17.712Z,13.96
2018-10-21T10:11:17.617Z,14.04
2018-10-21T10:12:17.608Z,13.97
2018-10-21T10:13:17.659Z,13.73
2018-10-21T10:14:17.590Z,13.84
2018-10-21T10:15:17.574Z,13.78
2018-10-21T10:16:17.606Z,13.91
2018-10-21T10:17:17.566Z,13.91
2018-10-21T10:18:17.541Z,14.00
2018-10-21T10:19:17.591Z,14.06
2018-10-21T10:20:17.525Z,13.87
2018-10-21T10:21:17.512Z,13.62
2018-10-21T10:22:17.555Z,13.54
2018-10-21T10:23:17.547Z,13.57
2018-10-21T10:24:17.478Z,13.48
2018-10-21T10:25:17.482Z,13.57
2018-10-21T10:26:17.450Z,13.79
2018-10-21T10:27:17.466Z,13.82
2018-10-21T10:28:17.582Z,14.12
2018-10-21T10:29:17.419Z,13.92
2018-10-21T10:30:17.426Z,13.70
2018-10-21T10:31:17.429Z,13.67
2018-10-21T10:32:17.391Z,13.54
2018-10-21T10:33:17.379Z,13.62
2018-10-21T10:34:17.480Z,13.82
2018-10-21T10:35:17.351Z,13.97
2018-10-21T10:36:17.428Z,14.17
2018-10-21T10:37:17.334Z,14.17
2018-10-21T10:38:17.317Z,14.33
2018-10-21T10:39:17.327Z,14.25
2018-10-21T10:40:17.417Z,14.36
2018-10-21T10:41:17.309Z,14.33
2018-10-21T10:42:17.418Z,14.28
2018-10-21T10:43:17.352Z,14.27
2018-10-21T10:44:17.264Z,14.35
2018-10-21T10:45:17.252Z,14.33
2018-10-21T10:46:17.297Z,14.36
2018-10-21T10:47:17.220Z,14.40
2018-10-21T10:48:17.223Z,14.50
2018-10-21T10:49:17.333Z,14.29
2018-10-21T10:50:17.190Z,14.14
2018-10-21T10:51:17.183Z,14.17
2018-10-21T10:52:17.269Z,14.18
2018-10-21T10:53:17.158Z,14.06
2018-10-21T10:54:17.176Z,13.85
2018-10-21T10:55:17.257Z,13.75
2018-10-21T10:56:17.125Z,13.91
2018-10-21T10:57:17.112Z,14.00
2018-10-21T10:58:17.128Z,14.07
2018-10-21T10:59:17.099Z,14.07
2018-10-21T11:00:17.370Z,13.97
2018-10-21T11:01:17.099Z,14.02
2018-10-21T11:02:17.054Z,14.20
2018-10-21T11:03:17.073Z,14.14
2018-10-21T11:04:17.120Z,14.10
2018-10-21T11:05:17.033Z,14.17
2018-10-21T11:06:17.114Z,14.09
2018-10-21T11:07:17.039Z,14.18
2018-10-21T11:08:17.013Z,14.07
2018-10-21T11:09:16.983Z,14.04
2018-10-21T11:10:17.043Z,14.18
2018-10-21T11:11:16.967Z,14.36
2018-10-21T11:12:16.954Z,14.39
2018-10-21T11:13:17.090Z,14.52
2018-10-21T11:14:16.948Z,14.65
2018-10-21T11:15:16.922Z,14.78
2018-10-21T11:16:17.001Z,14.99
2018-10-21T11:17:16.909Z,15.09
2018-10-21T11:18:16.892Z,15.03
2018-10-21T11:19:16.949Z,15.19
2018-10-21T11:20:16.869Z,15.14
2018-10-21T11:21:16.856Z,15.03
2018-10-21T11:22:16.921Z,15.17
2018-10-21T11:23:16.842Z,15.11
2018-10-21T11:24:16.840Z,15.17
2018-10-21T11:25:16.931Z,15.06
2018-10-21T11:26:16.828Z,15.03
2018-10-21T11:27:16.790Z,15.01
2018-10-21T11:28:16.932Z,14.98
2018-10-21T11:29:16.772Z,15.01
2018-10-21T11:30:16.768Z,15.07
2018-10-21T11:31:16.826Z,15.28
2018-10-21T11:32:16.741Z,15.25
2018-10-21T11:33:16.733Z,15.32
2018-10-21T11:34:16.770Z,15.43
2018-10-21T11:35:16.730Z,15.49
2018-10-21T11:36:16.719Z,15.36
2018-10-21T11:37:16.812Z,15.34
2018-10-21T11:38:16.685Z,15.31
2018-10-21T11:39:16.676Z,15.25
2018-10-21T11:40:16.693Z,15.47
2018-10-21T11:42:16.625Z,15.59
2018-10-21T11:43:16.701Z,15.50
2018-10-21T11:44:16.608Z,15.59
2018-10-21T11:45:16.622Z,15.67
2018-10-21T11:46:16.696Z,15.54
2018-10-21T11:47:16.570Z,15.38
2018-10-21T11:48:16.574Z,15.43
2018-10-21T11:49:16.617Z,15.44
2018-10-21T11:50:16.557Z,15.32
2018-10-21T11:51:16.539Z,15.27
2018-10-21T11:52:16.544Z,15.25
2018-10-21T11:53:16.507Z,15.11
2018-10-21T11:54:16.494Z,15.14
2018-10-21T11:55:16.571Z,15.20
2018-10-21T11:56:16.478Z,15.20
2018-10-21T11:57:16.480Z,15.17
2018-10-21T11:58:16.674Z,15.16
2018-10-21T11:59:16.466Z,15.16
2018-10-21T12:00:16.431Z,15.19
2018-10-21T12:01:16.551Z,15.28
2018-10-21T12:02:16.410Z,15.25
2018-10-21T12:03:16.418Z,15.25
2018-10-21T12:04:16.529Z,15.38
2018-10-21T12:05:16.384Z,15.38
2018-10-21T12:06:16.376Z,15.29
2018-10-21T12:07:16.435Z,15.35
2018-10-21T12:08:16.349Z,15.27
2018-10-21T12:09:16.344Z,15.35
2018-10-21T12:10:16.372Z,15.32
2018-10-21T12:11:16.321Z,15.27
2018-10-21T12:12:16.309Z,15.27
2018-10-21T12:13:16.402Z,15.25
2018-10-21T12:14:16.279Z,15.27
2018-10-21T12:15:16.284Z,15.29
2018-10-21T12:16:16.372Z,15.29
2018-10-21T12:17:16.264Z,15.34
2018-10-21T12:18:16.243Z,15.38
2018-10-21T12:19:16.229Z,15.38
2018-10-21T12:20:16.218Z,15.49
2018-10-21T12:21:16.224Z,15.46
2018-10-21T12:22:16.359Z,15.50
2018-10-21T12:23:16.202Z,15.44
2018-10-21T12:24:16.172Z,15.41
2018-10-21T12:25:16.197Z,15.43
2018-10-21T12:26:16.159Z,15.39
2018-10-21T12:27:16.145Z,15.41
2018-10-21T12:28:16.281Z,15.36
2018-10-21T12:29:16.172Z,15.41
2018-10-21T12:30:16.115Z,15.32
2018-10-21T12:31:16.211Z,15.29
2018-10-21T12:32:16.088Z,15.28
2018-10-21T12:33:16.078Z,15.29
2018-10-21T12:34:16.120Z,15.27
2018-10-21T12:35:16.161Z,15.31
2018-10-21T12:36:16.047Z,15.28
2018-10-21T12:37:16.117Z,15.21
2018-10-21T12:38:16.018Z,15.25
2018-10-21T12:39:16.018Z,15.25
2018-10-21T12:40:16.009Z,15.27
2018-10-21T12:41:16.054Z,15.19
2018-10-21T12:42:16.028Z,15.17
2018-10-21T12:43:16.068Z,15.17
2018-10-21T12:44:15.962Z,15.27
2018-10-21T12:45:16.036Z,15.34
2018-10-21T12:46:16.020Z,15.23
2018-10-21T12:47:16.012Z,15.32
2018-10-21T12:48:15.927Z,15.21
2018-10-21T12:49:15.977Z,15.10
2018-10-21T12:50:15.898Z,15.20
2018-10-21T12:51:15.880Z,15.25
2018-10-21T12:52:15.903Z,15.07
2018-10-21T12:53:15.981Z,15.20
2018-10-21T12:54:15.954Z,15.29
2018-10-21T12:55:15.921Z,15.32
2018-10-21T12:56:15.829Z,15.38
2018-10-21T12:57:15.817Z,15.25
2018-10-21T12:58:15.922Z,15.29
2018-10-21T12:59:15.808Z,15.27
2018-10-21T13:00:15.817Z,15.23
2018-10-21T13:01:15.872Z,15.29
2018-10-21T13:02:15.884Z,15.31
2018-10-21T13:03:15.752Z,15.28
2018-10-21T13:04:15.827Z,15.21
2018-10-21T13:05:15.749Z,15.25
2018-10-21T13:06:15.744Z,15.23
2018-10-21T13:07:15.833Z,15.19
2018-10-21T13:08:15.729Z,15.19
2018-10-21T13:09:15.691Z,15.23